Time;durP1;ratioP1;P1;durP2;ratioP2;P2;SDS_P1;SDS_P2;PMS_P1;PMS_P2;Temp;Humidity;BMP_temperature;BMP_pressure;BME280_temperature;BME280_humidity;BME280_pressure;Samples;Min_cycle;Max_cycle;Signal;HPM_P1;HPM_P2
2021/08/18 00:02:22;;;;;;;32.97;14.35;;;;;;;;;;4992794;28;20118;-79
2021/08/18 00:04:48;;;;;;;28.85;14.27;;;;;;;;;;4992006;28;20026;-78
2021/08/18 00:07:14;;;;;;;30.48;13.13;;;;;;;;;;4994350;28;20037;-78
2021/08/18 00:09:40;;;;;;;27.40;13.98;;;;;;;;;;4997189;28;20030;-78
2021/08/18 00:12:06;;;;;;;28.20;13.70;;;;;;;;;;4997460;28;20034;-77
2021/08/18 00:14:33;;;;;;;26.40;13.80;;;;;;;;;;5006012;28;20418;-78
2021/08/18 00:17:00;;;;;;;26.67;13.98;;;;;;;;;;5015971;28;20802;-78
2021/08/18 00:19:27;;;;;;;28.48;14.02;;;;;;;;;;4999802;28;20041;-76
2021/08/18 00:21:53;;;;;;;25.45;13.43;;;;;;;;;;5002491;28;20120;-77
2021/08/18 00:24:19;;;;;;;26.52;14.02;;;;;;;;;;5016432;28;20033;-78
2021/08/18 00:26:45;;;;;;;29.73;13.15;;;;;;;;;;5015595;28;20454;-77
2021/08/18 00:29:11;;;;;;;27.23;14.32;;;;;;;;;;5014578;28;20041;-77
2021/08/18 00:31:37;;;;;;;30.27;14.45;;;;;;;;;;5013519;28;20080;-78
2021/08/18 00:34:03;;;;;;;34.67;14.15;;;;;;;;;;4994343;28;20026;-78
2021/08/18 00:36:30;;;;;;;23.98;13.98;;;;;;;;;;5011880;28;20459;-77
2021/08/18 00:38:56;;;;;;;27.17;13.23;;;;;;;;;;5011192;28;20402;-77
2021/08/18 00:41:22;;;;;;;25.55;13.00;;;;;;;;;;4978104;28;20041;-77
2021/08/18 00:43:51;;;;;;;27.25;13.32;;;;;;;;;;5011760;28;20140;-76
2021/08/18 00:46:18;;;;;;;22.40;12.90;;;;;;;;;;5012066;28;20033;-77
2021/08/18 00:48:44;;;;;;;26.35;12.77;;;;;;;;;;5011586;28;20105;-77
2021/08/18 00:51:10;;;;;;;28.15;14.25;;;;;;;;;;4993959;28;20022;-77
2021/08/18 00:53:36;;;;;;;25.17;12.98;;;;;;;;;;5012009;28;20506;-77
2021/08/18 00:56:03;;;;;;;28.52;13.35;;;;;;;;;;4994086;28;20030;-76
2021/08/18 00:58:29;;;;;;;23.92;13.10;;;;;;;;;;4994551;28;20042;-77
2021/08/18 01:00:56;;;;;;;26.63;13.35;;;;;;;;;;5014748;28;20052;-77
2021/08/18 01:03:22;;;;;;;26.20;12.65;;;;;;;;;;5017191;28;20034;-77
2021/08/18 01:05:48;;;;;;;25.77;13.32;;;;;;;;;;5018197;28;20094;-76
2021/08/18 01:08:14;;;;;;;23.88;13.13;;;;;;;;;;5014548;28;20022;-77
2021/08/18 01:10:40;;;;;;;27.83;13.77;;;;;;;;;;4993881;28;20022;-77
2021/08/18 01:13:06;;;;;;;20.85;11.95;;;;;;;;;;5012040;28;20030;-77
2021/08/18 01:15:33;;;;;;;22.90;13.02;;;;;;;;;;4990518;28;20418;-76
2021/08/18 01:18:00;;;;;;;25.63;13.70;;;;;;;;;;4978299;28;20386;-76
2021/08/18 01:20:31;;;;;;;27.52;13.60;;;;;;;;;;4995834;28;20448;-77
2021/08/18 01:22:58;;;;;;;31.88;12.95;;;;;;;;;;4995900;28;20105;-76
2021/08/18 01:25:25;;;;;;;26.65;13.63;;;;;;;;;;4996093;28;20101;-77
2021/08/18 01:27:52;;;;;;;32.13;14.05;;;;;;;;;;4995977;28;20019;-77
2021/08/18 01:30:19;;;;;;;26.58;13.15;;;;;;;;;;4995055;28;20503;-79
2021/08/18 01:32:47;;;;;;;27.67;13.00;;;;;;;;;;4995800;28;20503;-77
2021/08/18 01:35:17;;;;;;;24.25;13.48;;;;;;;;;;4978233;28;20112;-77
2021/08/18 01:37:43;;;;;;;28.10;14.13;;;;;;;;;;4978156;28;20080;-77
2021/08/18 01:40:09;;;;;;;23.73;12.85;;;;;;;;;;4998614;28;20133;-77
2021/08/18 01:42:37;;;;;;;27.33;14.25;;;;;;;;;;5015101;28;20157;-77
2021/08/18 01:45:04;;;;;;;23.08;13.48;;;;;;;;;;5014812;28;20113;-77
2021/08/18 01:47:30;;;;;;;23.58;14.00;;;;;;;;;;5014952;28;20029;-76
2021/08/18 01:49:56;;;;;;;25.15;13.10;;;;;;;;;;5014407;28;20033;-77
2021/08/18 01:52:22;;;;;;;21.75;12.77;;;;;;;;;;5014916;28;20022;-77
2021/08/18 01:54:48;;;;;;;23.75;13.00;;;;;;;;;;5014740;28;20482;-77
2021/08/18 01:57:14;;;;;;;25.05;12.82;;;;;;;;;;5014988;28;20037;-77
2021/08/18 01:59:40;;;;;;;20.80;13.05;;;;;;;;;;4996432;28;20037;-77
2021/08/18 02:02:06;;;;;;;22.83;12.07;;;;;;;;;;5014592;28;20494;-76
2021/08/18 02:04:32;;;;;;;25.65;13.02;;;;;;;;;;5014608;28;20034;-76
2021/08/18 02:06:58;;;;;;;23.40;12.40;;;;;;;;;;5014617;28;20390;-77
2021/08/18 02:09:24;;;;;;;26.30;13.68;;;;;;;;;;5013955;28;20076;-76
2021/08/18 02:11:50;;;;;;;23.23;11.90;;;;;;;;;;5014470;28;20033;-77
2021/08/18 02:14:16;;;;;;;28.83;13.23;;;;;;;;;;5014266;28;20034;-76
2021/08/18 02:16:42;;;;;;;28.67;13.10;;;;;;;;;;5014259;28;20038;-77
2021/08/18 02:19:08;;;;;;;28.13;13.52;;;;;;;;;;5013756;28;20517;-77
2021/08/18 02:21:34;;;;;;;22.92;13.95;;;;;;;;;;5014422;28;20025;-79
2021/08/18 02:24:00;;;;;;;25.48;14.43;;;;;;;;;;5014154;28;20129;-76
2021/08/18 02:26:26;;;;;;;29.20;14.18;;;;;;;;;;5014256;28;20022;-76
2021/08/18 02:28:52;;;;;;;31.85;15.60;;;;;;;;;;5012961;28;20060;-78
2021/08/18 02:31:19;;;;;;;31.02;16.50;;;;;;;;;;5014327;28;20476;-77
2021/08/18 02:33:45;;;;;;;32.45;16.58;;;;;;;;;;5014075;28;20053;-76
2021/08/18 02:36:11;;;;;;;35.17;16.35;;;;;;;;;;5014041;28;20038;-77
2021/08/18 02:38:37;;;;;;;38.90;17.25;;;;;;;;;;4996126;28;20479;-76
2021/08/18 02:41:03;;;;;;;34.13;16.60;;;;;;;;;;5013563;28;20038;-77
2021/08/18 02:43:29;;;;;;;37.17;16.50;;;;;;;;;;5013992;28;20034;-76
2021/08/18 02:45:55;;;;;;;40.83;16.45;;;;;;;;;;4977093;28;20105;-78
2021/08/18 02:48:21;;;;;;;39.67;17.88;;;;;;;;;;4994438;28;20105;-78
2021/08/18 02:50:47;;;;;;;36.20;16.42;;;;;;;;;;4960187;28;20084;-78
2021/08/18 02:53:13;;;;;;;29.73;14.77;;;;;;;;;;4994166;28;20114;-78
2021/08/18 02:55:39;;;;;;;32.70;15.90;;;;;;;;;;4976573;28;20120;-79
2021/08/18 02:58:05;;;;;;;34.30;16.90;;;;;;;;;;4994041;28;20074;-78
2021/08/18 03:00:31;;;;;;;33.33;16.20;;;;;;;;;;4975609;28;20065;-79
2021/08/18 03:02:57;;;;;;;28.67;14.77;;;;;;;;;;4993916;28;20046;-78
2021/08/18 03:05:23;;;;;;;31.83;14.07;;;;;;;;;;4998448;28;20096;-78
2021/08/18 03:07:49;;;;;;;30.00;16.05;;;;;;;;;;4999547;28;20053;-76
2021/08/18 03:10:15;;;;;;;33.35;16.05;;;;;;;;;;4981567;28;20026;-76
2021/08/18 03:12:41;;;;;;;31.85;16.25;;;;;;;;;;4994790;28;20027;-76
2021/08/18 03:15:08;;;;;;;33.45;16.55;;;;;;;;;;4985697;28;20351;-76
2021/08/18 03:17:34;;;;;;;29.50;14.40;;;;;;;;;;4976316;28;20031;-76
2021/08/18 03:20:00;;;;;;;25.48;14.95;;;;;;;;;;4993459;28;20376;-77
2021/08/18 03:22:26;;;;;;;32.45;14.73;;;;;;;;;;4992465;28;20031;-79
2021/08/18 03:24:52;;;;;;;31.75;15.10;;;;;;;;;;4993735;28;20041;-78
2021/08/18 03:27:18;;;;;;;28.05;14.20;;;;;;;;;;4993596;28;20383;-78
2021/08/18 03:29:44;;;;;;;31.98;15.05;;;;;;;;;;4975284;28;20117;-79
2021/08/18 03:32:10;;;;;;;27.52;13.20;;;;;;;;;;4993536;28;20054;-76
2021/08/18 03:34:36;;;;;;;29.33;15.02;;;;;;;;;;4993459;28;20092;-79
2021/08/18 03:37:02;;;;;;;26.52;14.60;;;;;;;;;;4993356;28;20033;-76
2021/08/18 03:39:28;;;;;;;30.13;14.25;;;;;;;;;;4992310;28;20309;-76
2021/08/18 03:41:54;;;;;;;26.58;14.10;;;;;;;;;;4995004;28;20117;-77
2021/08/18 03:44:20;;;;;;;26.45;13.80;;;;;;;;;;5002810;28;20113;-76
2021/08/18 03:46:46;;;;;;;29.30;14.20;;;;;;;;;;5017094;28;20099;-76
2021/08/18 03:49:12;;;;;;;27.00;14.25;;;;;;;;;;5016752;28;20044;-76
2021/08/18 03:51:38;;;;;;;28.40;13.55;;;;;;;;;;4980376;28;20037;-76
2021/08/18 03:54:04;;;;;;;28.38;14.40;;;;;;;;;;5013096;28;20485;-76
2021/08/18 03:56:30;;;;;;;25.67;13.25;;;;;;;;;;5013100;28;20065;-75
2021/08/18 03:58:56;;;;;;;27.92;13.68;;;;;;;;;;4994686;28;20522;-76
2021/08/18 04:01:22;;;;;;;24.63;13.05;;;;;;;;;;5012677;28;20121;-76
2021/08/18 04:03:48;;;;;;;29.10;13.20;;;;;;;;;;5012544;28;20034;-77
2021/08/18 04:06:14;;;;;;;23.27;12.98;;;;;;;;;;5013747;28;20026;-76
2021/08/18 04:08:40;;;;;;;24.25;13.50;;;;;;;;;;4994928;28;20061;-76
2021/08/18 04:11:09;;;;;;;21.75;12.82;;;;;;;;;;5012239;28;20022;-76
2021/08/18 04:13:36;;;;;;;28.10;14.55;;;;;;;;;;5012471;28;20080;-76
2021/08/18 04:16:02;;;;;;;25.98;14.70;;;;;;;;;;5012272;28;20018;-76
2021/08/18 04:18:28;;;;;;;28.65;13.60;;;;;;;;;;5012308;28;20018;-76
2021/08/18 04:20:54;;;;;;;31.65;13.93;;;;;;;;;;5012130;28;20395;-76
2021/08/18 04:23:20;;;;;;;28.38;15.25;;;;;;;;;;5012230;28;20026;-76
2021/08/18 04:25:46;;;;;;;26.92;13.32;;;;;;;;;;5012169;28;20029;-76
2021/08/18 04:28:12;;;;;;;30.35;15.20;;;;;;;;;;5012176;28;20030;-77
2021/08/18 04:30:38;;;;;;;24.40;13.75;;;;;;;;;;5012799;28;20036;-77
2021/08/18 04:33:04;;;;;;;26.35;14.43;;;;;;;;;;5013419;28;20022;-77
2021/08/18 04:35:30;;;;;;;26.05;14.15;;;;;;;;;;5012388;28;20508;-77
2021/08/18 04:37:56;;;;;;;26.83;14.43;;;;;;;;;;5012096;28;20030;-78
2021/08/18 04:40:22;;;;;;;28.38;14.23;;;;;;;;;;5011397;28;20038;-78
2021/08/18 04:42:49;;;;;;;27.80;13.32;;;;;;;;;;5011868;28;20065;-78
2021/08/18 04:45:15;;;;;;;25.95;14.13;;;;;;;;;;5011742;28;20533;-78
2021/08/18 04:47:42;;;;;;;24.48;13.07;;;;;;;;;;5011947;28;20041;-78
2021/08/18 04:50:09;;;;;;;23.35;13.05;;;;;;;;;;4994086;28;20026;-77
2021/08/18 04:52:35;;;;;;;29.55;15.52;;;;;;;;;;5014942;28;20040;-77
2021/08/18 04:55:01;;;;;;;23.88;14.07;;;;;;;;;;5016067;28;20104;-78
2021/08/18 04:57:27;;;;;;;22.00;13.00;;;;;;;;;;4998443;28;20092;-78
2021/08/18 04:59:53;;;;;;;26.27;14.52;;;;;;;;;;5015543;28;20025;-77
2021/08/18 05:02:19;;;;;;;23.27;12.73;;;;;;;;;;5016363;28;20034;-77
2021/08/18 05:04:45;;;;;;;26.05;13.70;;;;;;;;;;4998983;28;20037;-77
2021/08/18 05:07:11;;;;;;;26.85;12.70;;;;;;;;;;5031738;28;20025;-78
2021/08/18 05:09:37;;;;;;;25.23;12.73;;;;;;;;;;5040229;28;20022;-78
2021/08/18 05:12:03;;;;;;;24.02;12.73;;;;;;;;;;5034995;28;20037;-78
2021/08/18 05:14:29;;;;;;;24.80;12.30;;;;;;;;;;5017801;28;20033;-78
2021/08/18 05:16:55;;;;;;;23.95;12.38;;;;;;;;;;5017183;28;20034;-78
2021/08/18 05:19:21;;;;;;;24.95;11.75;;;;;;;;;;5016289;28;20026;-78
2021/08/18 05:21:47;;;;;;;24.05;11.82;;;;;;;;;;4998512;28;20108;-78
2021/08/18 05:24:13;;;;;;;23.17;11.57;;;;;;;;;;5016005;28;20088;-78
2021/08/18 05:26:39;;;;;;;18.90;11.48;;;;;;;;;;4998440;28;20568;-78
2021/08/18 05:29:05;;;;;;;23.48;11.40;;;;;;;;;;5014864;28;20034;-78
2021/08/18 05:31:31;;;;;;;19.45;11.10;;;;;;;;;;5015996;28;20065;-77
2021/08/18 05:33:57;;;;;;;21.15;10.48;;;;;;;;;;4998027;28;20038;-77
2021/08/18 05:36:23;;;;;;;19.83;10.77;;;;;;;;;;5015348;28;20026;-78
2021/08/18 05:38:49;;;;;;;17.85;10.55;;;;;;;;;;5015477;28;20064;-77
2021/08/18 05:41:15;;;;;;;20.52;10.85;;;;;;;;;;5015428;28;20080;-77
2021/08/18 05:43:41;;;;;;;19.45;10.52;;;;;;;;;;5015042;28;20494;-77
2021/08/18 05:46:07;;;;;;;21.48;11.18;;;;;;;;;;5014878;28;20105;-76
2021/08/18 05:48:33;;;;;;;16.80;10.32;;;;;;;;;;5014904;28;20025;-77
2021/08/18 05:51:00;;;;;;;21.42;12.07;;;;;;;;;;5014443;28;20492;-78
2021/08/18 05:53:26;;;;;;;20.98;10.60;;;;;;;;;;5015011;28;20121;-78
2021/08/18 05:55:52;;;;;;;18.77;10.10;;;;;;;;;;5014919;28;20033;-78
2021/08/18 05:58:18;;;;;;;18.27;9.70;;;;;;;;;;4997255;28;20089;-78
2021/08/18 06:00:44;;;;;;;17.75;10.13;;;;;;;;;;4996261;28;20026;-77
2021/08/18 06:03:10;;;;;;;18.95;10.43;;;;;;;;;;5013875;28;20118;-78
2021/08/18 06:05:37;;;;;;;17.73;9.68;;;;;;;;;;4997147;28;20188;-78
2021/08/18 06:08:06;;;;;;;16.95;9.30;;;;;;;;;;5014705;28;20025;-77
2021/08/18 06:10:33;;;;;;;17.00;9.70;;;;;;;;;;5014931;28;20029;-78
2021/08/18 06:13:01;;;;;;;16.30;8.88;;;;;;;;;;5014714;28;20049;-78
2021/08/18 06:15:27;;;;;;;16.13;9.02;;;;;;;;;;5014345;28;20029;-78
2021/08/18 06:17:53;;;;;;;14.52;8.55;;;;;;;;;;5014611;28;20034;-77
2021/08/18 06:20:19;;;;;;;13.48;8.35;;;;;;;;;;5014148;28;20091;-78
2021/08/18 06:22:46;;;;;;;14.20;8.50;;;;;;;;;;4996941;28;20522;-78
2021/08/18 06:25:12;;;;;;;14.95;8.57;;;;;;;;;;5014437;28;20030;-77
2021/08/18 06:27:38;;;;;;;16.48;8.27;;;;;;;;;;5014491;28;20045;-76
2021/08/18 06:30:05;;;;;;;12.38;7.50;;;;;;;;;;5013670;28;20026;-76
2021/08/18 06:32:31;;;;;;;15.32;7.47;;;;;;;;;;5014254;28;20030;-77
2021/08/18 06:34:57;;;;;;;14.13;7.70;;;;;;;;;;5014236;28;20510;-78
2021/08/18 06:37:24;;;;;;;16.02;8.82;;;;;;;;;;5014137;28;20087;-76
2021/08/18 06:39:50;;;;;;;16.60;8.73;;;;;;;;;;5013191;28;20045;-76
2021/08/18 06:42:16;;;;;;;14.68;7.57;;;;;;;;;;4997749;28;20117;-77
2021/08/18 06:44:42;;;;;;;16.83;8.27;;;;;;;;;;5015595;28;20033;-77
2021/08/18 06:47:09;;;;;;;15.35;8.57;;;;;;;;;;5016337;28;20029;-77
2021/08/18 06:49:35;;;;;;;15.00;8.63;;;;;;;;;;5016031;28;20030;-77
2021/08/18 06:52:01;;;;;;;14.13;8.48;;;;;;;;;;5016102;28;20022;-77
2021/08/18 06:54:27;;;;;;;15.45;9.10;;;;;;;;;;5016258;28;20033;-76
2021/08/18 06:56:54;;;;;;;14.23;8.80;;;;;;;;;;5016326;28;20036;-77
2021/08/18 06:59:20;;;;;;;14.95;8.63;;;;;;;;;;5014614;28;20022;-77
2021/08/18 07:01:46;;;;;;;14.25;7.88;;;;;;;;;;5015941;28;20026;-76
2021/08/18 07:04:12;;;;;;;13.15;7.85;;;;;;;;;;4998060;28;20026;-76
2021/08/18 07:06:38;;;;;;;12.38;7.10;;;;;;;;;;5001799;28;20030;-76
2021/08/18 07:09:04;;;;;;;8.90;6.28;;;;;;;;;;5002171;28;20614;-76
2021/08/18 07:11:30;;;;;;;10.18;5.70;;;;;;;;;;5014930;28;20018;-76
2021/08/18 07:13:59;;;;;;;11.82;7.00;;;;;;;;;;4997213;28;20026;-78
2021/08/18 07:16:25;;;;;;;11.00;6.53;;;;;;;;;;5014609;28;20029;-77
2021/08/18 07:18:51;;;;;;;14.45;6.25;;;;;;;;;;5015571;28;20498;-76
2021/08/18 07:21:20;;;;;;;11.02;6.30;;;;;;;;;;4997710;28;20117;-79
2021/08/18 07:23:47;;;;;;;12.68;6.15;;;;;;;;;;5001008;28;20160;-78
2021/08/18 07:26:13;;;;;;;12.10;5.65;;;;;;;;;;5018698;28;20029;-78
2021/08/18 07:28:39;;;;;;;10.07;5.57;;;;;;;;;;5018079;28;20060;-78
2021/08/18 07:31:05;;;;;;;9.82;5.32;;;;;;;;;;5000059;28;20394;-78
2021/08/18 07:33:31;;;;;;;11.02;5.40;;;;;;;;;;5018509;28;20033;-77
2021/08/18 07:35:57;;;;;;;9.13;6.03;;;;;;;;;;5024607;28;20106;-78
2021/08/18 07:38:23;;;;;;;9.48;5.57;;;;;;;;;;5018326;28;20026;-77
2021/08/18 07:40:49;;;;;;;9.73;6.07;;;;;;;;;;5031462;22;20050;-82
2021/08/18 07:43:15;;;;;;;10.45;5.90;;;;;;;;;;5021949;28;20060;-82
2021/08/18 07:45:41;;;;;;;7.95;4.78;;;;;;;;;;4984326;28;20040;-82
2021/08/18 07:48:07;;;;;;;7.80;5.15;;;;;;;;;;5000450;28;20022;-82
2021/08/18 07:50:33;;;;;;;8.45;5.18;;;;;;;;;;4996154;28;20035;-82
2021/08/18 07:52:59;;;;;;;10.05;5.25;;;;;;;;;;4982195;28;20026;-82
2021/08/18 07:55:25;;;;;;;10.43;5.53;;;;;;;;;;4981874;28;20488;-81
2021/08/18 07:57:51;;;;;;;11.90;5.47;;;;;;;;;;4980657;28;20113;-82
2021/08/18 08:00:18;;;;;;;7.20;4.93;;;;;;;;;;4979882;28;20054;-81
2021/08/18 08:02:44;;;;;;;8.88;4.95;;;;;;;;;;4979920;28;20069;-81
2021/08/18 08:05:10;;;;;;;12.25;4.75;;;;;;;;;;4981777;28;20027;-82
2021/08/18 08:07:36;;;;;;;9.05;5.53;;;;;;;;;;4980984;28;20500;-82
2021/08/18 08:10:03;;;;;;;8.90;4.78;;;;;;;;;;4979872;28;20055;-82
2021/08/18 08:12:29;;;;;;;8.50;4.20;;;;;;;;;;4980063;28;20107;-82
2021/08/18 08:14:55;;;;;;;8.77;5.05;;;;;;;;;;4980222;28;20034;-82
2021/08/18 08:17:21;;;;;;;8.70;4.97;;;;;;;;;;4979504;28;20031;-83
2021/08/18 08:19:48;;;;;;;10.50;5.15;;;;;;;;;;4981023;28;20062;-83
2021/08/18 08:22:14;;;;;;;9.88;5.10;;;;;;;;;;4979618;28;20022;-84
2021/08/18 08:24:40;;;;;;;10.23;5.50;;;;;;;;;;4981342;28;20114;-83
2021/08/18 08:27:06;;;;;;;9.77;5.07;;;;;;;;;;4961727;28;20026;-83
2021/08/18 08:29:32;;;;;;;9.48;5.45;;;;;;;;;;4979662;28;20070;-84
2021/08/18 08:31:58;;;;;;;8.10;4.78;;;;;;;;;;4963210;28;20061;-83
2021/08/18 08:34:24;;;;;;;8.45;4.82;;;;;;;;;;4979607;28;20026;-83
2021/08/18 08:36:50;;;;;;;7.93;4.97;;;;;;;;;;4979618;28;20055;-83
2021/08/18 08:39:16;;;;;;;8.35;4.90;;;;;;;;;;4979279;28;20070;-83
2021/08/18 08:41:43;;;;;;;8.65;4.53;;;;;;;;;;4978734;28;20101;-83
2021/08/18 08:44:15;;;;;;;6.55;4.47;;;;;;;;;;4978088;28;20094;-83
2021/08/18 08:46:41;;;;;;;6.88;4.78;;;;;;;;;;4978004;28;20066;-82
2021/08/18 08:49:07;;;;;;;8.60;4.63;;;;;;;;;;4978893;28;20035;-82
2021/08/18 08:51:33;;;;;;;8.57;4.47;;;;;;;;;;4978131;28;20053;-82
2021/08/18 08:53:59;;;;;;;8.60;4.97;;;;;;;;;;4963649;28;20506;-82
2021/08/18 08:56:25;;;;;;;8.07;4.93;;;;;;;;;;4985599;28;20031;-83
2021/08/18 08:58:51;;;;;;;7.65;4.95;;;;;;;;;;4984438;28;20099;-81
2021/08/18 09:01:17;;;;;;;7.03;4.10;;;;;;;;;;4962643;28;20035;-82
2021/08/18 09:03:47;;;;;;;6.32;4.43;;;;;;;;;;4979541;28;20054;-82
2021/08/18 09:06:19;;;;;;;9.45;5.03;;;;;;;;;;4979689;28;20031;-83
2021/08/18 09:08:52;;;;;;;7.50;4.38;;;;;;;;;;4980184;28;20106;-83
2021/08/18 09:11:20;;;;;;;8.00;4.55;;;;;;;;;;4980985;28;20030;-83
2021/08/18 09:13:50;;;;;;;6.20;3.97;;;;;;;;;;4979190;28;20507;-82
2021/08/18 09:16:17;;;;;;;6.70;4.15;;;;;;;;;;4979629;28;20077;-84
2021/08/18 09:18:43;;;;;;;6.63;4.28;;;;;;;;;;4979820;28;20022;-83
2021/08/18 09:21:28;;;;;;;7.45;4.75;;;;;;;;;;4983187;28;20077;-82
2021/08/18 09:24:12;;;;;;;6.55;4.13;;;;;;;;;;4989044;28;20033;-82
2021/08/18 09:26:43;;;;;;;9.77;4.68;;;;;;;;;;4978976;28;20476;-82
2021/08/18 09:29:09;;;;;;;9.27;4.22;;;;;;;;;;4974890;28;20383;-83
2021/08/18 09:31:35;;;;;;;8.13;4.22;;;;;;;;;;4976108;28;20107;-83
2021/08/18 09:34:01;;;;;;;7.03;4.45;;;;;;;;;;4975578;28;20031;-84
2021/08/18 09:36:29;;;;;;;8.07;4.15;;;;;;;;;;4981121;28;20014;-81
2021/08/18 09:39:14;;;;;;;8.05;4.05;;;;;;;;;;4998424;28;20050;-83
2021/08/18 09:41:40;;;;;;;6.13;3.50;;;;;;;;;;4982826;28;20042;-84
2021/08/18 09:44:07;;;;;;;6.95;3.67;;;;;;;;;;4986535;28;20038;-83
2021/08/18 09:46:36;;;;;;;5.25;3.47;;;;;;;;;;4990673;28;20487;-83
2021/08/18 09:49:09;;;;;;;8.13;3.15;;;;;;;;;;4988963;28;20276;-84
2021/08/18 09:51:35;;;;;;;5.80;3.63;;;;;;;;;;4980092;28;20031;-84
2021/08/18 09:54:13;;;;;;;5.97;3.65;;;;;;;;;;4964564;28;20065;-84
2021/08/18 09:56:47;;;;;;;4.32;2.97;;;;;;;;;;4982650;28;20078;-82
2021/08/18 09:59:13;;;;;;;4.10;2.80;;;;;;;;;;4985520;28;20031;-82
2021/08/18 10:01:40;;;;;;;5.35;3.40;;;;;;;;;;4981682;28;20118;-83
2021/08/18 10:04:06;;;;;;;5.50;3.58;;;;;;;;;;4980897;28;20053;-84
2021/08/18 10:06:33;;;;;;;7.28;3.30;;;;;;;;;;4980329;28;20030;-84
2021/08/18 10:08:59;;;;;;;7.93;3.88;;;;;;;;;;4980220;28;20034;-84
2021/08/18 10:11:26;;;;;;;6.38;3.35;;;;;;;;;;4979891;28;20058;-84
2021/08/18 10:13:52;;;;;;;6.47;3.33;;;;;;;;;;4979788;28;20018;-83
2021/08/18 10:16:19;;;;;;;3.97;2.95;;;;;;;;;;4981790;28;20027;-83
2021/08/18 10:18:45;;;;;;;5.18;3.00;;;;;;;;;;4980814;28;20027;-83
2021/08/18 10:21:12;;;;;;;5.50;2.90;;;;;;;;;;4980171;28;20027;-83
2021/08/18 10:23:41;;;;;;;4.85;2.58;;;;;;;;;;4980564;28;20030;-83
2021/08/18 10:26:07;;;;;;;7.72;3.03;;;;;;;;;;4982433;28;20066;-84
2021/08/18 10:28:52;;;;;;;6.60;3.00;;;;;;;;;;4983843;28;20424;-84
2021/08/18 10:31:38;;;;;;;4.68;3.08;;;;;;;;;;4981282;28;20109;-83
2021/08/18 10:34:04;;;;;;;7.57;3.35;;;;;;;;;;4980929;28;20046;-83
2021/08/18 10:36:43;;;;;;;9.00;3.08;;;;;;;;;;4980393;28;20090;-82
2021/08/18 10:39:21;;;;;;;6.00;3.30;;;;;;;;;;4978644;28;20026;-83
2021/08/18 10:42:05;;;;;;;6.53;3.60;;;;;;;;;;4980741;28;20039;-84
2021/08/18 10:44:38;;;;;;;5.75;3.05;;;;;;;;;;4981703;28;20030;-83
2021/08/18 10:47:12;;;;;;;5.15;3.47;;;;;;;;;;4979056;28;20054;-82
2021/08/18 10:49:38;;;;;;;5.95;3.13;;;;;;;;;;4980829;28;20075;-81
2021/08/18 10:52:04;;;;;;;5.38;2.85;;;;;;;;;;4997744;28;20030;-82
2021/08/18 10:54:30;;;;;;;6.25;3.35;;;;;;;;;;4996165;28;20041;-81
2021/08/18 10:57:00;;;;;;;6.57;3.40;;;;;;;;;;4988214;28;20042;-84
2021/08/18 10:59:35;;;;;;;6.10;3.50;;;;;;;;;;4979143;28;20019;-83
2021/08/18 11:02:01;;;;;;;6.75;3.25;;;;;;;;;;4980309;28;20023;-83
2021/08/18 11:04:47;;;;;;;5.45;2.70;;;;;;;;;;4979537;28;20034;-83
2021/08/18 11:07:14;;;;;;;5.97;2.72;;;;;;;;;;4962041;28;20031;-83
2021/08/18 11:09:49;;;;;;;3.65;2.70;;;;;;;;;;4979331;28;20506;-83
2021/08/18 11:12:34;;;;;;;4.38;2.35;;;;;;;;;;4981511;28;20027;-84
2021/08/18 11:15:00;;;;;;;3.78;2.45;;;;;;;;;;4978979;28;20058;-82
2021/08/18 11:17:26;;;;;;;5.22;2.17;;;;;;;;;;4983929;28;20041;-83
2021/08/18 11:19:54;;;;;;;3.50;2.40;;;;;;;;;;4985887;28;20434;-83
2021/08/18 11:22:20;;;;;;;4.85;2.83;;;;;;;;;;4975895;28;20031;-83
2021/08/18 11:24:46;;;;;;;4.15;2.35;;;;;;;;;;4976545;28;20035;-82
2021/08/18 11:27:17;;;;;;;3.03;2.15;;;;;;;;;;4976560;28;20106;-83
2021/08/18 11:29:43;;;;;;;3.63;1.95;;;;;;;;;;4976151;28;20027;-83
2021/08/18 11:32:09;;;;;;;3.75;2.17;;;;;;;;;;4977502;28;20038;-83
2021/08/18 11:34:37;;;;;;;3.35;1.60;;;;;;;;;;4978820;28;20042;-84
2021/08/18 11:37:03;;;;;;;5.15;1.98;;;;;;;;;;4979313;28;20023;-83
2021/08/18 11:39:37;;;;;;;2.60;1.75;;;;;;;;;;4978674;28;20034;-83
2021/08/18 11:42:16;;;;;;;3.13;2.22;;;;;;;;;;4979415;28;20038;-84
2021/08/18 11:44:43;;;;;;;4.22;1.70;;;;;;;;;;4991132;28;20066;-81
2021/08/18 11:47:09;;;;;;;3.45;1.65;;;;;;;;;;4997879;28;20030;-81
2021/08/18 11:49:36;;;;;;;2.72;1.40;;;;;;;;;;4987503;28;20041;-83
2021/08/18 11:52:02;;;;;;;2.28;1.50;;;;;;;;;;4975984;28;20027;-83
2021/08/18 11:54:28;;;;;;;2.53;1.13;;;;;;;;;;4978106;28;20023;-84
2021/08/18 11:57:03;;;;;;;1.48;0.90;;;;;;;;;;4977191;28;20073;-83
2021/08/18 11:59:30;;;;;;;0.80;0.70;;;;;;;;;;4976451;28;20029;-84
2021/08/18 12:01:56;;;;;;;1.23;0.80;;;;;;;;;;4976203;28;20475;-84
2021/08/18 12:04:23;;;;;;;1.58;1.05;;;;;;;;;;4977839;28;20058;-83
2021/08/18 12:07:08;;;;;;;2.63;1.52;;;;;;;;;;4978366;28;20023;-83
2021/08/18 12:09:34;;;;;;;1.58;0.90;;;;;;;;;;4978947;28;20102;-83
2021/08/18 12:12:22;;;;;;;2.58;1.23;;;;;;;;;;4978172;28;20086;-83
2021/08/18 12:14:49;;;;;;;6.50;1.80;;;;;;;;;;4977766;28;20086;-83
2021/08/18 12:17:15;;;;;;;3.03;1.48;;;;;;;;;;4977744;28;20042;-83
2021/08/18 12:19:45;;;;;;;2.50;1.10;;;;;;;;;;4976353;28;20031;-83
2021/08/18 12:22:19;;;;;;;2.60;1.08;;;;;;;;;;4978691;28;20042;-83
2021/08/18 12:24:47;;;;;;;2.35;1.20;;;;;;;;;;4979137;28;20073;-83
2021/08/18 12:27:16;;;;;;;2.65;1.25;;;;;;;;;;4977342;28;20034;-83
2021/08/18 12:29:44;;;;;;;3.30;1.15;;;;;;;;;;4978164;28;20033;-83
2021/08/18 12:32:11;;;;;;;2.38;1.40;;;;;;;;;;4978567;28;20019;-82
2021/08/18 12:34:39;;;;;;;1.95;1.20;;;;;;;;;;4979140;28;20035;-83
2021/08/18 12:37:17;;;;;;;1.85;1.25;;;;;;;;;;4982858;28;20042;-83
2021/08/18 12:39:59;;;;;;;4.30;1.48;;;;;;;;;;4984120;28;20058;-83
2021/08/18 12:42:30;;;;;;;4.72;2.20;;;;;;;;;;4979236;28;20484;-84
2021/08/18 12:45:15;;;;;;;4.97;2.17;;;;;;;;;;4977420;28;20034;-85
2021/08/18 12:47:44;;;;;;;7.93;2.97;;;;;;;;;;4975369;28;20030;-84
2021/08/18 12:50:11;;;;;;;6.25;2.75;;;;;;;;;;4975277;28;20034;-85
2021/08/18 12:52:37;;;;;;;3.65;2.03;;;;;;;;;;4975298;28;20035;-85
2021/08/18 12:55:04;;;;;;;2.47;1.52;;;;;;;;;;4978012;28;20077;-84
2021/08/18 12:57:30;;;;;;;3.53;1.73;;;;;;;;;;4962333;28;20022;-85
2021/08/18 12:59:56;;;;;;;2.20;1.30;;;;;;;;;;4967897;28;20046;-85
2021/08/18 13:02:22;;;;;;;3.63;1.40;;;;;;;;;;4984539;28;20041;-85
2021/08/18 13:04:48;;;;;;;2.58;1.30;;;;;;;;;;4979306;28;20035;-85
2021/08/18 13:07:14;;;;;;;6.13;1.52;;;;;;;;;;4977681;28;20113;-85
2021/08/18 13:09:40;;;;;;;2.58;1.70;;;;;;;;;;4977450;28;20480;-84
2021/08/18 13:12:07;;;;;;;3.25;1.52;;;;;;;;;;4979033;28;20031;-85
2021/08/18 13:14:34;;;;;;;2.47;1.38;;;;;;;;;;4982028;28;20043;-83
2021/08/18 13:17:00;;;;;;;2.05;1.20;;;;;;;;;;4982055;28;20026;-85
2021/08/18 13:19:26;;;;;;;1.70;1.35;;;;;;;;;;4980498;28;20066;-84
2021/08/18 13:21:53;;;;;;;3.50;1.60;;;;;;;;;;4981814;28;20058;-84
2021/08/18 13:24:19;;;;;;;4.90;1.50;;;;;;;;;;4982148;28;20030;-85
2021/08/18 13:26:46;;;;;;;1.90;1.20;;;;;;;;;;4982721;28;20058;-85
2021/08/18 13:29:12;;;;;;;2.45;1.42;;;;;;;;;;4982017;28;20058;-83
2021/08/18 13:31:39;;;;;;;3.83;1.33;;;;;;;;;;4982171;28;20077;-84
2021/08/18 13:34:06;;;;;;;2.03;1.20;;;;;;;;;;4982554;28;20022;-84
2021/08/18 13:36:32;;;;;;;1.58;1.30;;;;;;;;;;4981502;28;20075;-84
2021/08/18 13:38:58;;;;;;;4.97;1.20;;;;;;;;;;4979935;28;20034;-84
2021/08/18 13:41:24;;;;;;;2.47;1.40;;;;;;;;;;4980437;28;20066;-81
2021/08/18 13:43:50;;;;;;;1.95;1.08;;;;;;;;;;4979933;28;20085;-81
2021/08/18 13:46:17;;;;;;;2.42;1.02;;;;;;;;;;4979751;28;20026;-82
2021/08/18 13:48:43;;;;;;;1.63;1.05;;;;;;;;;;4978785;28;20526;-81
2021/08/18 13:51:09;;;;;;;3.53;1.23;;;;;;;;;;4979223;28;20037;-81
2021/08/18 13:53:35;;;;;;;2.85;0.90;;;;;;;;;;4978628;28;20030;-81
2021/08/18 13:56:02;;;;;;;3.33;1.30;;;;;;;;;;4980528;28;20035;-82
2021/08/18 13:58:29;;;;;;;1.58;1.08;;;;;;;;;;4979079;28;20031;-80
2021/08/18 14:00:55;;;;;;;1.48;1.25;;;;;;;;;;4978677;28;20031;-81
2021/08/18 14:03:21;;;;;;;2.85;1.10;;;;;;;;;;4962729;28;20049;-81
2021/08/18 14:05:47;;;;;;;2.45;1.13;;;;;;;;;;4979703;28;20026;-79
2021/08/18 14:08:13;;;;;;;1.27;0.93;;;;;;;;;;4977167;28;20031;-80
2021/08/18 14:10:40;;;;;;;1.45;0.90;;;;;;;;;;4976956;28;20098;-81
2021/08/18 14:13:06;;;;;;;1.33;1.05;;;;;;;;;;4978260;28;20027;-80
2021/08/18 14:15:33;;;;;;;1.60;1.00;;;;;;;;;;4960430;28;20059;-79
2021/08/18 14:17:59;;;;;;;2.80;1.23;;;;;;;;;;4960189;28;20062;-79
2021/08/18 14:20:25;;;;;;;2.03;1.20;;;;;;;;;;4958913;28;20034;-80
2021/08/18 14:22:52;;;;;;;3.55;1.08;;;;;;;;;;4977757;28;20054;-80
2021/08/18 14:25:18;;;;;;;4.82;1.10;;;;;;;;;;4977433;28;20038;-80
2021/08/18 14:27:43;;;;;;;1.63;1.00;;;;;;;;;;4977108;28;20038;-80
2021/08/18 14:30:10;;;;;;;2.15;1.13;;;;;;;;;;4945378;28;20027;-80
2021/08/18 14:32:36;;;;;;;1.73;1.20;;;;;;;;;;4978436;28;20038;-80